Fort Chipewyan, Fort Chipewyan Airport (CYPY)

NameFort Chipewyan Airport
CityFort Chipewyan
CountryCanada
ICAOCYPY
IATAYPY
Altitude232 m
CoordinatesGoogle Map
Live Air TrafficLiveATC.net
METARCYPY 242200Z AUTO 13008KT 100V180 9SM CLR 18/11 A2970 RMK SLP066 DENSITY ALT 1500FT
2019-06-24 22:00:00 Wind: East-Southeast (130°) 4.12 m/s - Visibility: 14484.06 m - Temperature: 18 °C - Dew point: 11 °C - Humidity: 63.8% - Pressure: 1005.76 hPa

Sorry, no flights used the airport in this database.